Suzun, Russia
Current Conditions -  °F | °C
As of 12:30 PM on Sunday 26 Oct 2014 (Local Time) from UNBB Reporting Station
Broken Clouds Broken Clouds  
Wind Chill: 17°   Ceiling: 4000
Heat Index: 23°   Visibility: 6mi
Dew Point: 10°   Wind: 4mph
Humidity: 59%   Direction: 230°SW
Pressure: 30"   Gusts: NA
Location:  53.79°N, 82.31°E
Report Text: UNBB 260530Z 23002MPS 9999 BKN040 M05/M12 Q1016 NOSIG RMKQFE740/0986 24CLRD66
Loading
Personal Weather Stations






























Interactive Weather Map
Tropical Storm Tracking
New forecast layout! Learn more

10-Day Weather Forecast

Advertisements
Track Severe Weather on mobile